Terminal Aerodrome Forecast
Issued by NWS Nashville, TN

Home | Current Version | Previous Version | Text Only | Print | Product List | Glossary On
Versions: 1 2 3 4 5 6 7 8 9 10 11 12 13 14 15 16 17 18 19 20 21 22
000
FTUS44 KOHX 291729
TAFCSV
TAF
KCSV 291729Z 2918/3018 25009KT P6SM VCTS SCT025CB BKN035
      TEMPO 2918/2922 2SM +TSRA BKN020CB OVC035
     FM300100 23003KT P6SM SCT050 BKN100
     FM300600 21002KT 2SM BR BKN005=

USA.gov is the U.S. government's official web portal to all federal, state and local government web resources and services.